CST,Max TemperatureF,Mean TemperatureF,Min TemperatureF,Max Dew PointF,MeanDew PointF,Min DewpointF,Max Humidity, Mean Humidity, Min Humidity, Max Sea Level PressureIn, Mean Sea Level PressureIn, Min Sea Level PressureIn, Max VisibilityMiles, Mean VisibilityMiles, Min VisibilityMiles, Max Wind SpeedMPH, Mean Wind SpeedMPH, Max Gust SpeedMPH,PrecipitationIn, CloudCover, Events, WindDirDegrees
2012-11-1,80,58,35,51,41,35,100,64,28,30.12,30.05,30.00,10,4,0,8,1,12,0.00,1,Fog,143
2012-11-2,87,66,45,62,54,43,93,67,40,30.08,30.03,29.99,10,10,10,12,3,16,0.00,0,,231
2012-11-3,86,67,47,66,56,46,100,69,37,30.16,30.08,30.03,10,7,0,13,4,21,0.00,1,Fog,216
2012-11-4,67,57,47,61,57,47,93,78,63,30.19,30.12,30.07,10,8,2,15,5,18,0.57,6,Rain-Thunderstorm,28
2012-11-5,56,52,47,52,50,47,93,88,83,30.13,30.05,29.93,10,8,2,13,4,15,0.24,8,Rain-Thunderstorm,81
2012-11-6,61,48,35,50,43,35,100,81,62,30.13,30.07,30.00,10,6,0,12,3,16,0.00,4,Fog,335
2012-11-7,67,49,31,46,36,31,100,65,29,30.21,30.10,30.05,10,5,0,17,5,23,0.00,0,Fog,322
2012-11-8,66,47,28,41,35,27,100,69,37,30.33,30.24,30.16,10,9,2,9,1,13,0.00,0,,125
2012-11-9,74,55,35,50,43,34,100,66,31,30.29,30.22,30.16,10,10,7,10,5,15,0.00,0,,160
2012-11-10,80,62,43,56,52,44,100,70,40,30.26,30.18,30.11,10,10,8,18,9,23,0.00,0,,156
2012-11-11,81,71,60,66,60,54,90,68,45,30.15,30.09,30.02,10,8,1,25,14,37,0.69,5,Rain,173
2012-11-12,67,52,37,61,47,31,100,69,38,30.48,30.32,30.07,10,9,2,26,8,41,0.25,6,Rain,347
2012-11-13,59,44,28,34,31,27,92,61,30,30.54,30.45,30.38,10,10,10,15,7,21,0.00,0,,9
2012-11-14,59,43,27,36,31,25,100,68,36,30.43,30.37,30.33,10,10,9,12,5,20,0.00,0,,347
2012-11-15,62,43,23,42,32,21,96,70,43,30.38,30.32,30.28,10,7,0,12,4,15,0.00,0,Fog,1
2012-11-16,63,47,31,39,37,33,100,68,36,30.40,30.36,30.32,10,10,6,13,6,18,0.00,0,,360
2012-11-17,68,50,31,39,36,32,96,63,29,30.44,30.38,30.34,10,10,5,8,4,12,0.00,0,,10
2012-11-18,69,48,26,41,33,27,100,65,30,30.40,30.35,30.29,10,6,0,8,2,13,0.00,0,Fog,66
2012-11-19,71,51,30,44,37,30,100,66,31,30.36,30.29,30.21,10,6,1,8,1,14,0.00,0,,106
2012-11-20,73,57,40,49,44,39,100,69,37,30.26,30.21,30.16,10,10,8,7,1,9,0.00,4,,16
2012-11-21,74,55,35,49,41,36,100,69,38,30.28,30.21,30.16,10,5,0,12,3,18,0.00,0,Fog,1
2012-11-22,76,54,32,51,40,33,100,64,27,30.28,30.21,30.16,10,5,0,10,2,14,0.00,0,Fog,183
2012-11-23,63,48,32,54,44,31,96,74,51,30.34,30.27,30.21,10,10,8,13,3,16,0.00,4,,350
2012-11-24,54,39,23,33,25,20,88,57,26,30.42,30.33,30.22,10,10,10,17,6,22,0.00,0,,9
2012-11-25,65,42,19,39,27,19,100,61,22,30.24,30.15,30.08,10,10,9,10,5,14,0.00,0,,164
2012-11-26,70,59,48,64,58,40,93,80,66,30.11,30.07,30.01,10,10,3,15,8,20,0.05,7,Rain-Thunderstorm,159
2012-11-27,65,47,28,63,43,28,100,88,76,30.40,30.25,30.05,10,7,0,24,10,31,0.27,6,Fog-Rain-Thunderstorm,9
2012-11-28,59,42,24,38,30,24,100,68,36,30.53,30.42,30.38,10,5,0,8,3,12,0.00,0,Fog,17
2012-11-29,66,83,99,36,30,23,100,63,26,30.42,30.35,30.26,10,7,0,9,4,12,0.00,0,Fog,116
2012-11-30,72,51,30,51,41,30,100,74,47,30.32,30.26,30.20,10,6,0,9,4,14,0.00,0,Fog,134